createdAt,value
2019-03-12T00:02:27.491Z,4.01
2019-03-12T00:04:58.327Z,4.03
2019-03-12T00:07:29.251Z,3.97
2019-03-12T00:10:00.113Z,3.88
2019-03-12T00:12:31.201Z,3.87
2019-03-12T00:15:02.061Z,3.88
2019-03-12T00:17:32.897Z,3.88
2019-03-12T00:20:05.175Z,3.93
2019-03-12T00:22:36.000Z,3.94
2019-03-12T00:25:07.715Z,3.94
2019-03-12T00:27:38.538Z,3.85
2019-03-12T00:30:10.637Z,3.79
2019-03-12T00:32:41.475Z,3.76
2019-03-12T00:35:12.401Z,3.70
2019-03-12T00:37:43.232Z,3.68
2019-03-12T00:40:14.214Z,3.63
2019-03-12T00:42:45.025Z,3.63
2019-03-12T00:45:15.897Z,3.61
2019-03-12T00:47:46.681Z,3.59
2019-03-12T00:50:17.653Z,3.61
2019-03-12T00:52:48.475Z,3.61
2019-03-12T00:55:19.302Z,3.54
2019-03-12T00:57:50.144Z,3.53
2019-03-12T01:00:21.239Z,3.43
2019-03-12T01:02:52.102Z,3.38
2019-03-12T01:05:23.011Z,3.40
2019-03-12T01:07:53.847Z,3.43
2019-03-12T01:10:24.708Z,3.47
2019-03-12T01:12:55.556Z,3.51
2019-03-12T01:15:26.486Z,3.56
2019-03-12T01:17:57.337Z,3.56
2019-03-12T01:20:28.177Z,3.50
2019-03-12T01:22:59.015Z,3.39
2019-03-12T01:25:29.863Z,3.41
2019-03-12T01:28:00.707Z,3.48
2019-03-12T01:30:31.536Z,3.53
2019-03-12T01:33:02.351Z,3.57
2019-03-12T01:35:33.293Z,3.51
2019-03-12T01:38:04.209Z,3.47
2019-03-12T01:40:35.127Z,3.45
2019-03-12T01:43:05.943Z,3.41
2019-03-12T01:45:36.801Z,3.33
2019-03-12T01:48:07.616Z,3.38
2019-03-12T01:50:38.480Z,3.43
2019-03-12T01:53:09.379Z,3.59
2019-03-12T01:55:40.223Z,3.61
2019-03-12T01:58:14.409Z,3.59
2019-03-12T02:00:43.661Z,3.60
2019-03-12T02:03:14.522Z,3.57
2019-03-12T02:05:47.459Z,3.49
2019-03-12T02:08:18.346Z,3.40
2019-03-12T02:10:49.180Z,3.30
2019-03-12T02:13:20.026Z,3.29
2019-03-12T02:15:50.854Z,3.23
2019-03-12T02:18:21.696Z,3.19
2019-03-12T02:20:52.510Z,3.22
2019-03-12T02:23:23.492Z,3.13
2019-03-12T02:25:54.321Z,3.04
2019-03-12T02:28:25.170Z,2.98
2019-03-12T02:30:56.002Z,2.84
2019-03-12T02:33:26.859Z,2.72
2019-03-12T02:35:57.681Z,2.67
2019-03-12T02:38:28.628Z,2.67
2019-03-12T02:40:59.466Z,2.68
2019-03-12T02:43:30.297Z,2.66
2019-03-12T02:46:01.139Z,2.61
2019-03-12T02:48:31.964Z,2.52
2019-03-12T02:51:02.817Z,2.47
2019-03-12T02:53:33.682Z,2.46
2019-03-12T02:56:04.533Z,2.47
2019-03-12T02:58:35.355Z,2.46
2019-03-12T03:01:06.250Z,2.46
2019-03-12T03:03:37.098Z,2.49
2019-03-12T03:06:09.581Z,2.51
2019-03-12T03:08:40.443Z,2.53
2019-03-12T03:11:11.258Z,2.53
2019-03-12T03:13:42.134Z,2.51
2019-03-12T03:16:12.998Z,2.52
2019-03-12T03:18:43.839Z,2.50
2019-03-12T03:21:14.669Z,2.53
2019-03-12T03:23:45.607Z,2.52
2019-03-12T03:26:16.442Z,2.52
2019-03-12T03:28:47.280Z,2.55
2019-03-12T03:31:18.115Z,2.54
2019-03-12T03:33:48.965Z,2.60
2019-03-12T03:36:23.387Z,2.63
2019-03-12T03:38:54.244Z,2.65
2019-03-12T03:41:25.079Z,2.62
2019-03-12T03:43:55.925Z,2.64
2019-03-12T03:46:26.804Z,2.65
2019-03-12T03:48:57.633Z,2.68
2019-03-12T03:51:28.608Z,2.72
2019-03-12T03:53:59.442Z,2.71
2019-03-12T03:56:30.273Z,2.71
2019-03-12T03:59:01.119Z,2.68
2019-03-12T04:01:31.948Z,2.67
2019-03-12T04:04:02.802Z,2.66
2019-03-12T04:06:34.486Z,2.64
2019-03-12T04:09:06.438Z,2.64
2019-03-12T04:11:37.337Z,2.64
2019-03-12T04:14:08.255Z,2.62
2019-03-12T04:16:39.326Z,2.54
2019-03-12T04:19:10.314Z,2.46
2019-03-12T04:21:41.155Z,2.39
2019-03-12T04:24:12.011Z,2.41
2019-03-12T04:26:42.825Z,2.44
2019-03-12T04:29:13.685Z,2.54
2019-03-12T04:31:44.561Z,2.50
2019-03-12T04:34:15.678Z,2.47
2019-03-12T04:36:46.529Z,2.50
2019-03-12T04:39:17.490Z,2.56
2019-03-12T04:41:48.326Z,2.57
2019-03-12T04:44:19.177Z,2.52
2019-03-12T04:46:50.077Z,2.53
2019-03-12T04:49:20.905Z,2.55
2019-03-12T04:51:51.855Z,2.58
2019-03-12T04:54:22.785Z,2.61
2019-03-12T04:56:53.654Z,2.65
2019-03-12T04:59:24.565Z,2.72
2019-03-12T05:01:55.505Z,2.84
2019-03-12T05:04:26.391Z,2.88
2019-03-12T05:06:57.302Z,2.93
2019-03-12T05:09:28.132Z,2.94
2019-03-12T05:11:58.965Z,2.97
2019-03-12T05:14:30.585Z,3.00
2019-03-12T05:17:04.775Z,3.01
2019-03-12T05:19:35.610Z,3.01
2019-03-12T05:22:06.549Z,3.04
2019-03-12T05:24:37.365Z,3.07
2019-03-12T05:27:08.332Z,3.08
2019-03-12T05:29:39.183Z,3.09
2019-03-12T05:32:11.559Z,3.07
2019-03-12T05:34:42.461Z,3.08
2019-03-12T05:37:13.321Z,3.10
2019-03-12T05:39:44.128Z,3.11
2019-03-12T05:42:15.121Z,3.13
2019-03-12T05:44:45.983Z,3.13
2019-03-12T05:47:16.824Z,3.15
2019-03-12T05:49:47.649Z,3.15
2019-03-12T05:52:18.470Z,3.15
2019-03-12T05:54:51.722Z,3.16
2019-03-12T05:57:22.582Z,3.18
2019-03-12T05:59:53.421Z,3.21
2019-03-12T06:02:24.261Z,3.22
2019-03-12T06:04:55.106Z,3.25
2019-03-12T06:07:26.137Z,3.28
2019-03-12T06:09:56.997Z,3.29
2019-03-12T06:12:27.907Z,3.28
2019-03-12T06:14:58.748Z,3.28
2019-03-12T06:17:29.640Z,3.31
2019-03-12T06:20:00.556Z,3.37
2019-03-12T06:22:31.500Z,3.40
2019-03-12T06:25:05.967Z,3.44
2019-03-12T06:27:37.309Z,3.48
2019-03-12T06:30:20.138Z,3.48
2019-03-12T06:32:55.730Z,3.54
2019-03-12T06:35:32.344Z,3.56
2019-03-12T06:38:04.824Z,3.60
2019-03-12T06:40:43.390Z,3.65
2019-03-12T06:43:21.772Z,3.71
2019-03-12T06:46:10.526Z,3.73
2019-03-12T06:48:54.992Z,3.76
2019-03-12T06:51:32.472Z,3.83
2019-03-12T06:54:07.940Z,3.84
2019-03-12T06:56:43.141Z,3.90
2019-03-12T06:59:15.575Z,3.97
2019-03-12T07:01:48.084Z,3.91
2019-03-12T07:04:32.629Z,3.91
2019-03-12T07:07:21.651Z,3.89
2019-03-12T07:10:00.375Z,3.93
2019-03-12T07:12:41.938Z,3.93
2019-03-12T07:15:14.516Z,3.86
2019-03-12T07:17:52.971Z,3.92
2019-03-12T07:20:31.224Z,3.86
2019-03-12T07:23:18.704Z,3.78
2019-03-12T07:26:07.484Z,3.74
2019-03-12T07:28:54.947Z,3.73
2019-03-12T07:31:36.458Z,3.94
2019-03-12T07:34:36.169Z,4.22
2019-03-12T07:37:17.542Z,4.49
2019-03-12T07:40:05.170Z,4.90
2019-03-12T07:42:49.608Z,4.83
2019-03-12T07:45:42.236Z,4.91
2019-03-12T07:48:14.107Z,4.80
2019-03-12T07:50:46.564Z,4.95
2019-03-12T07:53:19.079Z,5.16
2019-03-12T07:56:03.909Z,5.44
2019-03-12T07:58:36.427Z,5.42
2019-03-12T08:01:11.598Z,5.14
2019-03-12T08:03:58.959Z,5.39
2019-03-12T08:06:30.555Z,5.45
2019-03-12T08:09:18.095Z,5.59
2019-03-12T08:11:59.817Z,5.42
2019-03-12T08:14:32.282Z,5.58
2019-03-12T08:17:14.033Z,5.42
2019-03-12T08:20:01.506Z,5.87
2019-03-12T08:22:37.090Z,6.18
2019-03-12T08:25:10.417Z,6.64
2019-03-12T08:28:01.233Z,6.74
2019-03-12T08:30:51.796Z,6.75
2019-03-12T08:33:27.225Z,6.64
2019-03-12T08:36:14.797Z,7.08
2019-03-12T08:38:52.901Z,7.31
2019-03-12T08:41:37.482Z,7.13
2019-03-12T08:44:22.153Z,6.64
2019-03-12T08:46:57.587Z,7.43
2019-03-12T08:49:34.884Z,7.85
2019-03-12T08:52:15.861Z,7.36
2019-03-12T08:54:54.225Z,7.79
2019-03-12T08:57:38.547Z,7.94
2019-03-12T09:00:26.276Z,7.11
2019-03-12T09:03:10.627Z,7.31
2019-03-12T09:05:43.105Z,7.95
2019-03-12T09:08:18.007Z,8.19
2019-03-12T09:11:05.617Z,7.96
2019-03-12T09:13:54.031Z,7.28
2019-03-12T09:16:29.446Z,6.87
2019-03-12T09:19:04.811Z,6.72
2019-03-12T09:21:37.330Z,6.56
2019-03-12T09:24:09.789Z,6.73
2019-03-12T09:26:42.297Z,6.77
2019-03-12T09:29:26.754Z,7.60
2019-03-12T09:32:08.295Z,8.00
2019-03-12T09:34:49.801Z,8.01
2019-03-12T09:37:24.731Z,7.41
2019-03-12T09:40:13.411Z,7.15
2019-03-12T09:42:51.507Z,7.32
2019-03-12T09:45:24.051Z,7.82
2019-03-12T09:48:12.552Z,8.97
2019-03-12T09:50:45.010Z,9.21
2019-03-12T09:53:35.318Z,8.43
2019-03-12T09:56:10.493Z,8.24
2019-03-12T09:58:45.907Z,9.13
2019-03-12T10:01:24.186Z,9.80
2019-03-12T10:03:56.677Z,9.51
2019-03-12T10:06:45.350Z,9.69
2019-03-12T10:09:34.131Z,10.72
2019-03-12T10:12:06.822Z,10.58
2019-03-12T10:14:54.575Z,9.21
2019-03-12T10:17:27.078Z,9.92
2019-03-12T10:19:59.554Z,9.91
2019-03-12T10:22:34.768Z,9.77
2019-03-12T10:25:23.947Z,9.38
2019-03-12T10:28:11.841Z,8.65
2019-03-12T10:30:56.305Z,8.51
2019-03-12T10:33:28.798Z,10.44
2019-03-12T10:36:16.409Z,11.56
2019-03-12T10:39:23.545Z,10.62
2019-03-12T10:42:14.340Z,10.04
2019-03-12T10:45:04.921Z,9.30
2019-03-12T10:47:46.324Z,9.36
2019-03-12T10:50:17.251Z,9.28
2019-03-12T10:52:48.109Z,9.24
2019-03-12T10:55:19.014Z,8.85
2019-03-12T10:57:49.840Z,8.60
2019-03-12T11:00:20.920Z,8.33
2019-03-12T11:02:51.736Z,9.12
2019-03-12T11:05:23.142Z,8.90
2019-03-12T11:07:54.100Z,8.48
2019-03-12T11:10:25.119Z,9.35
2019-03-12T11:12:55.925Z,11.56
2019-03-12T11:15:26.771Z,12.11
2019-03-12T11:17:57.646Z,11.56
2019-03-12T11:20:29.440Z,10.24
2019-03-12T11:23:00.300Z,11.37
2019-03-12T11:25:31.214Z,12.27
2019-03-12T11:28:02.076Z,12.74
2019-03-12T11:30:33.042Z,13.09
2019-03-12T11:33:04.195Z,12.79
2019-03-12T11:35:39.324Z,11.25
2019-03-12T11:38:07.599Z,11.73
2019-03-12T11:40:38.618Z,11.53
2019-03-12T11:43:09.662Z,12.96
2019-03-12T11:45:40.487Z,12.74
2019-03-12T11:48:11.467Z,12.49
2019-03-12T11:50:42.296Z,11.82
2019-03-12T11:53:13.142Z,11.45
2019-03-12T11:55:44.054Z,10.86
2019-03-12T11:58:15.002Z,12.33
2019-03-12T12:00:50.542Z,13.16
2019-03-12T12:03:21.450Z,14.02
2019-03-12T12:05:52.381Z,13.95
2019-03-12T12:08:23.316Z,13.44
2019-03-12T12:10:54.080Z,13.02
2019-03-12T12:13:24.986Z,11.94
2019-03-12T12:15:55.931Z,12.89
2019-03-12T12:18:26.902Z,13.61
2019-03-12T12:20:57.730Z,12.38
2019-03-12T12:23:28.575Z,10.66
2019-03-12T12:26:04.309Z,9.79
2019-03-12T12:28:42.464Z,10.45
2019-03-12T12:31:17.316Z,11.41
2019-03-12T12:33:57.056Z,12.59
2019-03-12T12:36:33.930Z,12.43
2019-03-12T12:39:10.208Z,12.28
2019-03-12T12:41:46.477Z,12.16
2019-03-12T12:44:20.549Z,12.40
2019-03-12T12:46:51.394Z,11.51
2019-03-12T12:49:22.264Z,10.69
2019-03-12T12:51:53.185Z,10.75
2019-03-12T12:54:28.270Z,10.57
2019-03-12T12:57:02.037Z,11.68
2019-03-12T12:59:32.962Z,12.80
2019-03-12T13:02:03.905Z,13.69
2019-03-12T13:04:34.843Z,13.27
2019-03-12T13:07:05.818Z,13.26
2019-03-12T13:09:38.191Z,13.40
2019-03-12T13:12:09.137Z,13.18
2019-03-12T13:14:41.666Z,13.21
2019-03-12T13:17:15.421Z,12.52
2019-03-12T13:19:46.325Z,13.27
2019-03-12T13:22:19.929Z,13.54
2019-03-12T13:24:50.775Z,13.47
2019-03-12T13:27:21.753Z,13.37
2019-03-12T13:29:52.602Z,13.21
2019-03-12T13:32:23.625Z,12.63
2019-03-12T13:34:54.491Z,13.10
2019-03-12T13:37:25.652Z,13.55
2019-03-12T13:39:56.584Z,14.08
2019-03-12T13:42:27.530Z,14.19
2019-03-12T13:44:58.402Z,14.58
2019-03-12T13:47:29.946Z,13.48
2019-03-12T13:50:01.805Z,13.44
2019-03-12T13:52:35.921Z,13.66
2019-03-12T13:55:11.665Z,13.86
2019-03-12T13:57:44.369Z,13.53
2019-03-12T14:00:24.718Z,13.79
2019-03-12T14:02:55.633Z,12.97
2019-03-12T14:05:29.736Z,12.92
2019-03-12T14:08:00.673Z,12.42
2019-03-12T14:10:31.763Z,12.78
2019-03-12T14:13:02.784Z,12.65
2019-03-12T14:15:35.352Z,13.14
2019-03-12T14:18:06.569Z,13.36
2019-03-12T14:20:43.669Z,12.89
2019-03-12T14:23:20.420Z,12.34
2019-03-12T14:25:51.887Z,12.10
2019-03-12T14:28:23.402Z,11.86
2019-03-12T14:30:54.363Z,11.14
2019-03-12T14:33:25.442Z,10.91
2019-03-12T14:35:56.656Z,10.59
2019-03-12T14:38:27.638Z,10.29
2019-03-12T14:40:58.633Z,10.32
2019-03-12T14:43:29.681Z,10.47
2019-03-12T14:46:15.728Z,10.27
2019-03-12T14:51:53.436Z,9.89
2019-03-12T14:54:26.142Z,9.95
2019-03-12T14:57:00.103Z,10.06
2019-03-12T14:59:30.939Z,9.98
2019-03-12T15:02:02.294Z,10.07
2019-03-12T15:04:33.541Z,10.03
2019-03-12T15:07:05.273Z,10.17
2019-03-12T15:09:36.094Z,9.98
2019-03-12T15:12:06.940Z,9.71
2019-03-12T15:14:37.825Z,9.63
2019-03-12T15:17:08.759Z,9.57
2019-03-12T15:19:39.624Z,9.54
2019-03-12T15:22:10.470Z,9.41
2019-03-12T15:24:41.354Z,9.40
2019-03-12T15:27:12.188Z,9.35
2019-03-12T15:29:44.127Z,9.32
2019-03-12T15:32:14.992Z,9.29
2019-03-12T15:34:45.904Z,9.28
2019-03-12T15:37:16.853Z,9.23
2019-03-12T15:39:47.688Z,9.22
2019-03-12T15:42:18.543Z,9.19
2019-03-12T15:44:49.662Z,9.15
2019-03-12T15:47:20.571Z,9.17
2019-03-12T15:49:51.428Z,9.13
2019-03-12T15:52:22.267Z,9.11
2019-03-12T15:54:53.236Z,9.06
2019-03-12T15:57:24.141Z,9.06
2019-03-12T15:59:55.008Z,9.04
2019-03-12T16:02:25.849Z,9.05
2019-03-12T16:04:56.702Z,9.07
2019-03-12T16:07:27.619Z,9.08
2019-03-12T16:09:58.454Z,9.00
2019-03-12T16:12:29.342Z,8.95
2019-03-12T16:15:00.523Z,8.95
2019-03-12T16:17:31.496Z,8.95
2019-03-12T16:20:02.333Z,8.94
2019-03-12T16:22:33.276Z,8.90
2019-03-12T16:25:04.602Z,8.87
2019-03-12T16:27:35.549Z,8.85
2019-03-12T16:30:15.430Z,8.82
2019-03-12T16:32:46.343Z,8.81
2019-03-12T16:35:17.335Z,8.79
2019-03-12T16:37:48.168Z,8.78
2019-03-12T16:40:20.269Z,8.71
2019-03-12T16:42:51.109Z,8.67
2019-03-12T16:45:22.314Z,8.61
2019-03-12T16:47:53.142Z,8.57
2019-03-12T16:50:24.038Z,8.51
2019-03-12T16:52:54.897Z,8.45
2019-03-12T16:55:25.707Z,8.43
2019-03-12T16:57:56.570Z,8.41
2019-03-12T17:00:27.459Z,8.37
2019-03-12T17:02:58.313Z,8.30
2019-03-12T17:05:29.159Z,8.18
2019-03-12T17:07:59.998Z,8.04
2019-03-12T17:10:30.923Z,7.96
2019-03-12T17:13:01.768Z,7.87
2019-03-12T17:15:32.682Z,7.78
2019-03-12T17:18:03.530Z,7.69
2019-03-12T17:20:34.371Z,7.61
2019-03-12T17:23:05.213Z,7.59
2019-03-12T17:25:36.226Z,7.55
2019-03-12T17:28:08.961Z,7.46
2019-03-12T17:30:39.896Z,7.43
2019-03-12T17:33:10.726Z,7.44
2019-03-12T17:35:42.739Z,7.45
2019-03-12T17:38:13.722Z,7.48
2019-03-12T17:40:44.553Z,7.51
2019-03-12T17:43:15.381Z,7.53
2019-03-12T17:45:46.341Z,7.52
2019-03-12T17:48:17.361Z,7.53
2019-03-12T17:50:48.329Z,7.52
2019-03-12T17:53:19.359Z,7.53
2019-03-12T17:55:50.230Z,7.52
2019-03-12T17:58:23.877Z,7.52
2019-03-12T18:00:55.319Z,7.50
2019-03-12T18:03:26.189Z,7.50
2019-03-12T18:05:58.419Z,7.51
2019-03-12T18:08:29.748Z,7.48
2019-03-12T18:11:00.931Z,7.47
2019-03-12T18:13:31.860Z,7.42
2019-03-12T18:16:04.737Z,7.42
2019-03-12T18:18:35.601Z,7.40
2019-03-12T18:21:06.544Z,7.37
2019-03-12T18:23:46.130Z,7.37
2019-03-12T18:26:17.017Z,7.37
2019-03-12T18:28:50.782Z,7.36
2019-03-12T18:31:23.191Z,7.39
2019-03-12T18:33:55.842Z,7.36
2019-03-12T18:36:29.396Z,7.35
2019-03-12T18:39:03.140Z,7.31
2019-03-12T18:41:33.029Z,7.27
2019-03-12T18:44:04.045Z,7.25
2019-03-12T18:46:34.904Z,7.16
2019-03-12T18:49:05.877Z,7.11
2019-03-12T18:51:40.071Z,7.06
2019-03-12T18:54:10.955Z,7.12
2019-03-12T18:56:41.891Z,7.14
2019-03-12T18:59:13.093Z,7.18
2019-03-12T19:01:44.179Z,7.20
2019-03-12T19:04:15.023Z,7.19
2019-03-12T19:06:45.996Z,7.20
2019-03-12T19:09:21.599Z,7.18
2019-03-12T19:11:52.667Z,7.17
2019-03-12T19:14:23.855Z,7.19
2019-03-12T19:16:54.784Z,7.14
2019-03-12T19:19:25.685Z,7.13
2019-03-12T19:21:56.817Z,7.10
2019-03-12T19:24:27.978Z,7.09
2019-03-12T19:27:00.345Z,7.09
2019-03-12T19:29:31.320Z,7.04
2019-03-12T19:32:07.231Z,7.00
2019-03-12T19:34:39.593Z,7.00
2019-03-12T19:37:14.930Z,6.96
2019-03-12T19:39:45.908Z,6.92
2019-03-12T19:42:16.993Z,6.89
2019-03-12T19:44:51.807Z,6.90
2019-03-12T19:47:24.466Z,6.89
2019-03-12T19:49:55.292Z,6.88
2019-03-12T19:52:26.155Z,6.82
2019-03-12T19:54:57.711Z,6.76
2019-03-12T19:57:28.629Z,6.72
2019-03-12T19:59:59.570Z,6.75
2019-03-12T20:02:31.703Z,6.77
2019-03-12T20:05:02.866Z,6.79
2019-03-12T20:07:34.533Z,6.77
2019-03-12T20:10:26.635Z,6.78
2019-03-12T20:13:14.755Z,6.77
2019-03-12T20:16:13.320Z,6.79
2019-03-12T20:19:02.060Z,6.86
2019-03-12T20:21:42.084Z,6.84
2019-03-12T20:24:24.931Z,6.85
2019-03-12T20:27:33.194Z,6.88
2019-03-12T20:30:30.174Z,6.88
2019-03-12T20:33:22.309Z,6.83
2019-03-12T20:36:24.896Z,6.84
2019-03-12T20:39:15.689Z,6.90
2019-03-12T20:42:11.065Z,6.88
2019-03-12T20:45:12.368Z,6.89
2019-03-12T20:47:49.040Z,6.99
2019-03-12T20:50:25.506Z,7.02
2019-03-12T20:53:28.390Z,7.02
2019-03-12T20:56:30.456Z,7.02
2019-03-12T20:59:23.964Z,7.04
2019-03-12T21:02:26.849Z,7.06
2019-03-12T21:05:19.093Z,7.04
2019-03-12T21:08:20.390Z,7.03
2019-03-12T21:11:25.886Z,7.00
2019-03-12T21:14:20.178Z,7.00
2019-03-12T21:17:13.340Z,7.01
2019-03-12T21:20:08.800Z,6.97
2019-03-12T21:22:59.419Z,6.96
2019-03-12T21:25:33.307Z,6.95
2019-03-12T21:28:41.984Z,6.94
2019-03-12T21:31:14.969Z,6.96
2019-03-12T21:33:45.375Z,6.98
2019-03-12T21:36:16.509Z,7.00
2019-03-12T21:38:47.477Z,6.99
2019-03-12T21:41:18.431Z,6.98
2019-03-12T21:43:49.288Z,6.96
2019-03-12T21:46:20.239Z,6.98
2019-03-12T21:48:51.199Z,6.95
2019-03-12T21:51:22.047Z,6.95
2019-03-12T21:53:52.915Z,6.94
2019-03-12T21:56:23.754Z,6.93
2019-03-12T21:58:54.601Z,6.94
2019-03-12T22:01:25.455Z,6.95
2019-03-12T22:03:56.393Z,6.97
2019-03-12T22:06:27.236Z,6.96
2019-03-12T22:08:58.136Z,6.95
2019-03-12T22:11:28.997Z,6.95
2019-03-12T22:13:59.850Z,6.94
2019-03-12T22:16:30.760Z,6.92
2019-03-12T22:19:01.628Z,6.93
2019-03-12T22:21:46.375Z,6.91
2019-03-12T22:24:18.857Z,6.88
2019-03-12T22:26:49.718Z,6.84
2019-03-12T22:29:20.551Z,6.85
2019-03-12T22:31:51.468Z,6.86
2019-03-12T22:34:22.307Z,6.88
2019-03-12T22:36:53.146Z,6.86
2019-03-12T22:39:23.999Z,6.88
2019-03-12T22:41:54.903Z,6.87
2019-03-12T22:44:25.789Z,6.86
2019-03-12T22:46:56.615Z,6.83
2019-03-12T22:49:27.480Z,6.84
2019-03-12T22:51:58.363Z,6.84
2019-03-12T22:54:29.215Z,6.92
2019-03-12T22:57:00.147Z,6.94
2019-03-12T22:59:30.975Z,6.96
2019-03-12T23:02:01.826Z,7.01
2019-03-12T23:04:32.657Z,7.02
2019-03-12T23:07:03.584Z,7.04
2019-03-12T23:09:34.486Z,7.04
2019-03-12T23:12:05.400Z,7.03
2019-03-12T23:14:36.789Z,7.04
2019-03-12T23:17:07.717Z,7.07
2019-03-12T23:19:38.562Z,7.13
2019-03-12T23:22:09.400Z,7.16
2019-03-12T23:24:40.248Z,7.24
2019-03-12T23:27:11.149Z,7.27
2019-03-12T23:29:41.975Z,7.30
2019-03-12T23:32:15.501Z,7.32
2019-03-12T23:34:45.513Z,7.33
2019-03-12T23:37:16.365Z,7.37
2019-03-12T23:39:47.225Z,7.39
2019-03-12T23:42:18.183Z,7.39
2019-03-12T23:44:49.187Z,7.40
2019-03-12T23:47:20.127Z,7.41
2019-03-12T23:49:51.107Z,7.44
2019-03-12T23:52:22.063Z,7.51
2019-03-12T23:54:52.955Z,7.58
2019-03-12T23:57:23.869Z,7.63
2019-03-12T23:59:55.202Z,7.68
